Jonah, Texas
Current Conditions -  °F | °C
As of 12:15 AM on Friday 19 Dec 2014 (Local Time) from KGTU Reporting Station
Overcast Overcast  
Wind Chill: 50°   Ceiling: 600
Heat Index: 50°   Visibility: 7mi
Dew Point: 46°   Wind: 12mph
Humidity: 87%   Direction: 350°N
Pressure: 30.11"   Gusts: NA
Location:  30.6233°N, 97.6645°W
Report Text: KGTU 190615Z 35010KT 7SM OVC006 10/08 A3011 RMK AO1 LTG DSNT SE
Loading
Personal Weather Stations






























Interactive Weather Map New forecast layout! Learn more

10-Day Weather Forecast

Advertisements
Track Severe Weather on mobile